KMRF

Marfa Municipal Airport

Marfa, Texas, USA
METAR KMRF 200956Z AUTO 36007KT 10SM CLR M06/M08 A3033 RMK AO2 SLP273 T10611083 FZRANO
Observed Flight Rules
Jan-20 @ 09:56 UTC (an hour ago) Visual Flight Rules
Wind Visibility Clouds
360° at 7 knots 10 miles
  • Clear skies
Temperatures Readings
Current -6°C / 21°F
Dewpoint -8°C / 18°F
Humidity 86%
Altimeter 30.33" Hg
Pressure 1027.3 hPa
Elevation 1481
METAR KMRF 200956Z AUTO 36007KT 10SM CLR M06/M08 A3033 RMK AO2 SLP273 T10611083 FZRANO
Observed Flight Rules
Jan-20 @ 09:56 UTC
(an hour ago)
VFR
Wind Visibility
360° at 7 knots 10 miles
Clouds
  • Clear skies
Temperature Dewpoint
-6°C / 21°F -8°C / 18°F
Humidity Altimeter Pressure
86% 30.33" Hg 1027.3 hPa